WetterOnline ( http://www.wetteronline.de )

Wetter aktuell Bad Lauchstädt

Aktuelles Wetter: Leipzig/Halle (136m)

6-stündlich | Neueste Meldungen
Ortszeit Temperatur Wetter
Di, 26.03. 13:00 7.8° C bewölkt
Di, 26.03. 7:00 1.9° C leicht bewölkt
Di, 26.03. 1:00 4.2° C bewölkt
Mo, 25.03. 19:00 4.1° C leicht bewölkt
Mo, 25.03. 13:00 6.4° C leichte Schauer
Mo, 25.03. 7:00 3.7° C leichte Schauer
Mo, 25.03. 1:00 1.4° C wolkenlos
So, 24.03. 19:00 7.2° C wolkig
Ortszeit Temperatur Wetter
Di, 26.03. 15:00 8.1° C bewölkt
Di, 26.03. 14:50 8.1° C bedeckt
Di, 26.03. 14:40 7.7° C bedeckt
Di, 26.03. 14:30 7.9° C bedeckt
Di, 26.03. 14:20 7.9° C bedeckt
Di, 26.03. 14:10 7.9° C bedeckt
Di, 26.03. 14:00 7.8° C bewölkt
Di, 26.03. 13:30 7.7° C bedeckt
Di, 26.03. 13:00 7.8° C bewölkt
Di, 26.03. 12:30 7.8° C bewölkt
Di, 26.03. 12:00 6.6° C bewölkt
Ortszeit Relative Feuchte Sichtweite
Di, 26.03. 13:00 60% 60 km
Di, 26.03. 7:00 94% 12 km
Di, 26.03. 1:00 82% 50 km
Mo, 25.03. 19:00 84% 55 km
Mo, 25.03. 13:00 66% 50 km
Mo, 25.03. 7:00 75% 30 km
Mo, 25.03. 1:00 79% 30 km
So, 24.03. 19:00 79% 15 km
Ortszeit Relative Feuchte Sichtweite
Di, 26.03. 15:00 57% 50 km
Di, 26.03. 14:50 57% -
Di, 26.03. 14:40 61% -
Di, 26.03. 14:30 57% -
Di, 26.03. 14:20 57% -
Di, 26.03. 14:10 59% -
Di, 26.03. 14:00 56% 60 km
Di, 26.03. 13:30 59% -
Di, 26.03. 13:00 60% 60 km
Di, 26.03. 12:30 60% -
Di, 26.03. 12:00 61% 60 km
Ortszeit Niederschlagsmenge Niederschlagsart
Di, 26.03. 13:00 0.1 l/m2 in 6 Std. Regen
Di, 26.03. 7:00 0.0 l/m2 in 12 Std. -
Di, 26.03. 1:00 0.0 l/m2 in 6 Std. -
Mo, 25.03. 19:00 2 l/m2 in 12 Std. Schauer
Mo, 25.03. 13:00 0.1 l/m2 in 6 Std. Regenschauer
Mo, 25.03. 7:00 0.1 l/m2 in 12 Std. -
Mo, 25.03. 1:00 0.0 l/m2 in 6 Std. -
So, 24.03. 19:00 0.0 l/m2 in 12 Std. -
Ortszeit Niederschlagsmenge Niederschlagsart
Di, 26.03. 15:00 0.0 l/m2 in 1 Std. -
Di, 26.03. 14:50 keine Meldung -
Di, 26.03. 14:40 keine Meldung -
Di, 26.03. 14:30 0.0 l/m2 in 1 Std. -
Di, 26.03. 14:20 keine Meldung -
Di, 26.03. 14:10 keine Meldung -
Di, 26.03. 14:00 0.0 l/m2 in 1 Std. -
Di, 26.03. 13:30 0.0 l/m2 in 1 Std. -
Di, 26.03. 13:00 0.0 l/m2 in 1 Std. Regen
Di, 26.03. 12:30 0.0 l/m2 in 1 Std. -
Di, 26.03. 12:00 0.0 l/m2 in 1 Std. -
Ortszeit Stärke Spitze Richtung
km/h Bft. km/h Grad Sektor
Di, 26.03. 13:00 31 5 44 250° W
Di, 26.03. 7:00 17 3 26 260° W
Di, 26.03. 1:00 18 3 25 320° NW
Mo, 25.03. 19:00 6 1 44 310° NW
Mo, 25.03. 13:00 22 4 50 320° NW
Mo, 25.03. 7:00 35 5 44 240° SW
Mo, 25.03. 1:00 14 3 18 240° SW
So, 24.03. 19:00 11 2 18 220° SW
Ortszeit Stärke Spitze Richtung
km/h Bft. km/h Grad Sektor
Di, 26.03. 15:00 24 4 39 270° W
Di, 26.03. 14:50 24 4 - 270° W
Di, 26.03. 14:40 22 4 - 280° W
Di, 26.03. 14:30 25 4 40 290° W
Di, 26.03. 14:20 25 4 - 290° W
Di, 26.03. 14:10 22 4 - 290° W
Di, 26.03. 14:00 22 4 40 290° W
Di, 26.03. 13:30 26 4 39 260° W
Di, 26.03. 13:00 31 5 44 250° W
Di, 26.03. 12:30 28 4 44 290° W
Di, 26.03. 12:00 25 4 36 280° W
Ortszeit Untergrenze Bedeckung Gattung
total tief tief mittel hoch
Di, 26.03. 13:00 1050 m 7/8 7/8 Cu - -
Di, 26.03. 7:00 330 m 5/8 5/8 Sc - -
Di, 26.03. 1:00 570 m 7/8 7/8 Sc - -
Mo, 25.03. 19:00 990 m 5/8 5/8 Cb - -
Mo, 25.03. 13:00 990 m 8/8 7/8 Cb - -
Mo, 25.03. 7:00 1380 m 8/8 7/8 Cb - -
Mo, 25.03. 1:00 - 0/8 0/8 - - -
So, 24.03. 19:00 1200 m 7/8 1/8 Cu As -
Ortszeit Bedeckungsgrad in Achtel und Wolkenuntergrenze
Di, 26.03. 15:00 7(1230m)
Di, 26.03. 14:50 4(1260m) 5(1440m) 8(1500m)
Di, 26.03. 14:40 4(1410m) 8(1500m)
Di, 26.03. 14:30 2(1110m) 8(1500m)
Di, 26.03. 14:20 2(1110m) 2(1290m) 8(1500m)
Di, 26.03. 14:10 6(1170m) 8(1500m)
Di, 26.03. 14:00 6(1290m) 6(1800m)
Di, 26.03. 13:30 6(1200m) 8(1500m)
Di, 26.03. 13:00 3(1050m) 6(1500m)
Di, 26.03. 12:30 1(990m) 7(1500m)
Di, 26.03. 12:00 7(1080m) 6(1170m) 8(1470m)
Ortszeit Luftdruck NN (hPa) Tendenz (hPa in 3 Std.)
Di, 26.03. 13:00 1026 - 1,0
Di, 26.03. 7:00 1027 + 0,5
Di, 26.03. 1:00 1025 + 1,9
Mo, 25.03. 19:00 1020 + 3,2
Mo, 25.03. 13:00 1015 + 0,1
Mo, 25.03. 7:00 1015 - 2,4
Mo, 25.03. 1:00 1020 - 1,7
So, 24.03. 19:00 1022 - 1,0
Ortszeit Luftdruck NN (hPa) Tendenz (hPa in 3 Std.)
Di, 26.03. 15:00 1026 - 0,9
Di, 26.03. 14:50 1026 keine Meldung
Di, 26.03. 14:40 1026 keine Meldung
Di, 26.03. 14:30 1026 - 0,9
Di, 26.03. 14:20 1026 keine Meldung
Di, 26.03. 14:10 1026 keine Meldung
Di, 26.03. 14:00 1026 - 1,1
Di, 26.03. 13:30 1026 - 1,2
Di, 26.03. 13:00 1026 - 1,0
Di, 26.03. 12:30 1026 - 0,9
Di, 26.03. 12:00 1027 - 0,7
Ortszeit Schneehöhe (cm)
Di, 26.03. 13:00 0
Di, 26.03. 7:00 0
Di, 26.03. 1:00 0
Mo, 25.03. 19:00 0
Mo, 25.03. 13:00 0
Mo, 25.03. 7:00 0
Mo, 25.03. 1:00 0
So, 24.03. 19:00 0
Ortszeit Schneehöhe (cm)
Di, 26.03. 15:00 -
Di, 26.03. 14:50 -
Di, 26.03. 14:40 -
Di, 26.03. 14:30 -
Di, 26.03. 14:20 -
Di, 26.03. 14:10 -
Di, 26.03. 14:00 -
Di, 26.03. 13:30 -
Di, 26.03. 13:00 0
Di, 26.03. 12:30 -
Di, 26.03. 12:00 -
Link zu dieser Seite / Seite empfehlen

Das Wetter in ...